TAF and METAR

METAR for Ushuaia - Malvinas Argentinas International Airport

SAWH 230900Z 09012KT 9999 -DZSN OVC010 01/M00 Q1004
Report created 23. mai 11:00
wind 12 knots from E (090°) visibility > 10km light drizzle and snow overcast at 1000 feet Temperature 1° with dewpoint at -0° (Humidity 93.02%) Pressure 1004 hPa

TAF for Ushuaia - Malvinas Argentinas International Airport

TAF SAWH 230500Z 2306/2406 09015KT 5000 SNRA OVC010 TX05/2406Z TNM01/2308Z BECMG 2312/2314 8000 -RASN BKN015 OVC050 BECMG 2317/2319 36015KT 9999 NSW BKN015
Report created 23. mai 07:00

between 23. mai 08:00 - 24. mai 08:00

wind 15 knots from E (090°) visibility 5000 meters sleet overcast at 1000 feet Max temperature 05° expected tomorrow at around 08 o'clock Min temperature -01° expected today at around 10 o'clock

becoming between 23. mai 14:00 - 23. mai 16:00

visibility 8000 meters light sleet broken clouds (~75% cover) at 1500 feet overcast at 5000 feet

becoming between 23. mai 19:00 - 23. mai 21:00

wind 15 knots from N (360°) visibility > 10km broken clouds (~75% cover) at 1500 feet
Ushuaia - Malvinas Argentinas International Airport in Argentina at 14m

Latest 5 airports